Time;durP1;ratioP1;P1;durP2;ratioP2;P2;SDS_P1;SDS_P2;PMS_P1;PMS_P2;Temp;Humidity;BMP_temperature;BMP_pressure;BME280_temperature;BME280_humidity;BME280_pressure;Samples;Min_cycle;Max_cycle;Signal;HPM_P1;HPM_P2
2022/07/14 00:02:11;;;;;;;;;;;;;;;21.24;26.91;98146.84;4844571;29;1141;-77
2022/07/14 00:04:37;;;;;;;;;;;;;;;21.44;26.78;98152.50;4844534;29;970;-77
2022/07/14 00:07:02;;;;;;;;;;;;;;;21.27;26.48;98152.44;4844087;29;928;-77
2022/07/14 00:09:27;;;;;;;;;;;;;;;21.42;26.56;98149.31;4844234;29;953;-77
2022/07/14 00:11:53;;;;;;;;;;;;;;;21.25;26.82;98152.09;4808534;29;1773;-77
2022/07/14 00:14:18;;;;;;;;;;;;;;;21.06;27.28;98144.44;4826296;29;1903;-77
2022/07/14 00:16:44;;;;;;;;;;;;;;;20.84;27.79;98151.81;4824922;29;1054;-77
2022/07/14 00:19:10;;;;;;;;;;;;;;;20.99;27.27;98153.09;4881310;29;971;-77
2022/07/14 00:21:35;;;;;;;;;;;;;;;21.00;27.23;98154.69;4881276;29;1119;-77
2022/07/14 00:24:01;;;;;;;;;;;;;;;20.88;27.47;98155.31;4881344;29;1034;-77
2022/07/14 00:26:26;;;;;;;;;;;;;;;20.95;27.35;98149.53;4880638;29;2123;-77
2022/07/14 00:28:52;;;;;;;;;;;;;;;21.62;26.31;98157.75;4846568;29;1614;-77
2022/07/14 00:31:17;;;;;;;;;;;;;;;21.54;26.51;98159.94;4881231;29;1051;-77
2022/07/14 00:33:43;;;;;;;;;;;;;;;21.50;26.37;98162.06;4881013;29;1972;-78
2022/07/14 00:36:09;;;;;;;;;;;;;;;21.26;27.00;98153.69;4880888;29;977;-78
2022/07/14 00:38:34;;;;;;;;;;;;;;;21.10;27.26;98162.13;4843804;29;1114;-77
2022/07/14 00:41:00;;;;;;;;;;;;;;;21.09;27.21;98160.56;4807333;29;1366;-78
2022/07/14 00:43:25;;;;;;;;;;;;;;;21.06;27.20;98161.41;4788837;30;1822;-77
2022/07/14 00:45:51;;;;;;;;;;;;;;;21.12;27.27;98154.00;4789173;29;943;-77
2022/07/14 00:48:19;;;;;;;;;;;;;;;21.03;27.50;98162.28;4789246;29;1004;-77
2022/07/14 00:50:45;;;;;;;;;;;;;;;21.11;27.29;98162.94;4757970;30;1716;-77
2022/07/14 00:53:11;;;;;;;;;;;;;;;20.85;27.64;98156.22;4789390;29;1280;-77
2022/07/14 00:55:37;;;;;;;;;;;;;;;20.89;27.56;98151.28;4804305;29;1916;-77
2022/07/14 00:58:02;;;;;;;;;;;;;;;20.74;27.61;98154.41;4807018;29;1057;-77
2022/07/14 01:00:28;;;;;;;;;;;;;;;20.92;27.39;98156.06;4805193;29;1325;-78
2022/07/14 01:02:53;;;;;;;;;;;;;;;21.44;26.90;98152.50;4806904;29;996;-78
2022/07/14 01:05:19;;;;;;;;;;;;;;;21.74;26.21;98149.31;4807116;29;1015;-77
2022/07/14 01:07:44;;;;;;;;;;;;;;;21.47;26.50;98157.28;4739399;30;1971;-77
2022/07/14 01:10:10;;;;;;;;;;;;;;;21.22;26.95;98158.63;4697152;30;1922;-77
2022/07/14 01:12:36;;;;;;;;;;;;;;;21.09;27.27;98160.56;4735950;30;1096;-77
2022/07/14 01:15:01;;;;;;;;;;;;;;;21.12;27.04;98158.84;4735573;30;1911;-78
2022/07/14 01:17:27;;;;;;;;;;;;;;;21.07;27.08;98157.34;4735308;30;1008;-77
2022/07/14 01:19:53;;;;;;;;;;;;;;;21.13;27.25;98149.94;4735701;30;1063;-78
2022/07/14 01:22:18;;;;;;;;;;;;;;;20.91;27.36;98149.59;4721611;30;1343;-77
2022/07/14 01:24:45;;;;;;;;;;;;;;;21.30;26.86;98150.81;4752466;30;1737;-78
2022/07/14 01:27:11;;;;;;;;;;;;;;;21.50;26.69;98156.38;4753182;30;943;-77
2022/07/14 01:29:37;;;;;;;;;;;;;;;21.28;26.90;98156.84;4728494;30;1140;-78
2022/07/14 01:32:03;;;;;;;;;;;;;;;20.92;27.23;98156.06;4735507;30;1065;-78
2022/07/14 01:34:29;;;;;;;;;;;;;;;21.11;27.06;98152.41;4735314;30;1986;-77
2022/07/14 01:36:55;;;;;;;;;;;;;;;21.19;26.97;98159.50;4735431;30;1376;-78
2022/07/14 01:39:21;;;;;;;;;;;;;;;20.98;27.34;98157.13;4771352;29;1925;-77
2022/07/14 01:41:46;;;;;;;;;;;;;;;20.95;27.62;98155.19;4802291;29;1097;-77
2022/07/14 01:44:12;;;;;;;;;;;;;;;21.10;27.17;98161.34;4824718;29;1199;-77
2022/07/14 01:46:38;;;;;;;;;;;;;;;21.31;26.74;98160.88;4828482;29;1137;-77
2022/07/14 01:49:04;;;;;;;;;;;;;;;21.48;26.73;98161.72;4791978;30;1246;-77
2022/07/14 01:51:29;;;;;;;;;;;;;;;21.30;26.86;98157.25;4759372;30;1277;-77
2022/07/14 01:53:55;;;;;;;;;;;;;;;21.05;27.18;98171.13;4801520;29;1970;-77
2022/07/14 01:56:22;;;;;;;;;;;;;;;21.16;27.37;98165.25;4810223;29;1159;-77
2022/07/14 01:58:49;;;;;;;;;;;;;;;20.93;27.46;98168.97;4825247;29;1160;-77
2022/07/14 02:04:02;;;;;;;;;;;;;;;20.99;27.45;98161.56;4777059;30;1128;-77
2022/07/14 02:06:28;;;;;;;;;;;;;;;20.81;27.92;98168.38;4790127;30;1135;-77
2022/07/14 02:08:55;;;;;;;;;;;;;;;20.75;27.92;98170.13;4738521;30;1205;-77
2022/07/14 02:14:05;;;;;;;;;;;;;;;21.64;26.50;98166.59;4756029;30;1908;-77
2022/07/14 02:16:31;;;;;;;;;;;;;;;21.32;26.99;98162.47;4770911;30;1165;-77
2022/07/14 02:18:57;;;;;;;;;;;;;;;21.27;26.73;98169.41;4770676;30;1411;-77
2022/07/14 02:21:25;;;;;;;;;;;;;;;21.22;27.03;98171.97;4763098;30;1062;-78
2022/07/14 02:23:51;;;;;;;;;;;;;;;21.04;27.01;98175.22;4773725;30;1124;-77
2022/07/14 02:26:17;;;;;;;;;;;;;;;21.06;27.03;98179.19;4791093;30;1651;-77
2022/07/14 02:28:42;;;;;;;;;;;;;;;21.04;27.12;98181.66;4791577;30;1085;-78
2022/07/14 02:31:10;;;;;;;;;;;;;;;21.37;26.87;98175.31;4799275;29;1347;-77
2022/07/14 02:33:36;;;;;;;;;;;;;;;21.65;26.25;98168.97;4809110;29;1990;-77
2022/07/14 02:36:01;;;;;;;;;;;;;;;21.44;26.63;98175.13;4809759;29;965;-77
2022/07/14 02:38:27;;;;;;;;;;;;;;;21.24;27.09;98177.97;4809440;29;1248;-78
2022/07/14 02:40:52;;;;;;;;;;;;;;;20.97;27.57;98176.13;4798944;29;2023;-77
2022/07/14 02:43:19;;;;;;;;;;;;;;;21.16;27.30;98177.34;4808359;29;1543;-78
2022/07/14 02:45:45;;;;;;;;;;;;;;;21.08;27.14;98181.56;4841782;29;1276;-77
2022/07/14 02:48:11;;;;;;;;;;;;;;;20.91;27.82;98177.09;4845559;29;1139;-77
2022/07/14 02:50:36;;;;;;;;;;;;;;;20.79;27.92;98184.22;4845714;29;1186;-78
2022/07/14 02:53:05;;;;;;;;;;;;;;;20.93;27.66;98183.91;4845877;29;1195;-77
2022/07/14 02:55:34;;;;;;;;;;;;;;;20.86;27.76;98177.59;4845042;29;1978;-78
2022/07/14 02:58:00;;;;;;;;;;;;;;;21.46;26.76;98175.50;4811104;29;2134;-77
2022/07/14 03:00:27;;;;;;;;;;;;;;;21.41;26.78;98181.69;4790960;29;1283;-77
2022/07/14 03:02:54;;;;;;;;;;;;;;;21.41;26.81;98184.53;4776330;30;1116;-78
2022/07/14 03:05:19;;;;;;;;;;;;;;;21.41;26.68;98184.53;4790764;30;1175;-78
2022/07/14 03:07:45;;;;;;;;;;;;;;;21.20;27.12;98183.75;4790684;30;907;-78
2022/07/14 03:10:10;;;;;;;;;;;;;;;21.13;27.41;98186.72;4788433;30;1191;-77
2022/07/14 03:12:36;;;;;;;;;;;;;;;21.09;27.64;98183.19;4807949;29;1734;-78
2022/07/14 03:15:01;;;;;;;;;;;;;;;21.07;27.71;98196.94;4811887;29;1916;-77
2022/07/14 03:17:27;;;;;;;;;;;;;;;21.06;27.84;98192.53;4781797;29;1274;-78
2022/07/14 03:19:53;;;;;;;;;;;;;;;21.11;27.51;98188.41;4812616;29;942;-77
2022/07/14 03:22:18;;;;;;;;;;;;;;;21.05;27.54;98194.56;4808683;29;1167;-77
2022/07/14 03:24:45;;;;;;;;;;;;;;;21.11;27.61;98194.84;4808751;29;1162;-77
2022/07/14 03:27:11;;;;;;;;;;;;;;;20.89;27.75;98185.22;4807536;29;1960;-77
2022/07/14 03:29:40;;;;;;;;;;;;;;;21.50;26.87;98196.84;4795162;29;1220;-77
2022/07/14 03:32:05;;;;;;;;;;;;;;;21.58;26.57;98200.28;4790769;29;1144;-78
2022/07/14 03:34:31;;;;;;;;;;;;;;;21.20;27.49;98199.94;4794664;29;1989;-78
2022/07/14 03:36:57;;;;;;;;;;;;;;;21.32;27.12;98200.06;4802321;29;1262;-78
2022/07/14 03:39:27;;;;;;;;;;;;;;;21.21;27.33;98196.66;4790659;29;1090;-77
2022/07/14 03:41:53;;;;;;;;;;;;;;;20.99;27.68;98192.69;4771875;30;1716;-78
2022/07/14 03:44:18;;;;;;;;;;;;;;;20.88;27.92;98194.91;4772377;30;1161;-76
2022/07/14 03:46:45;;;;;;;;;;;;;;;21.20;27.47;98194.25;4754382;30;1220;-77
2022/07/14 03:49:16;;;;;;;;;;;;;;;21.14;27.68;98199.66;4718605;30;1983;-78
2022/07/14 03:51:42;;;;;;;;;;;;;;;21.14;27.61;98196.00;4719239;30;1861;-77
2022/07/14 03:54:08;;;;;;;;;;;;;;;21.21;27.54;98207.97;4718862;30;1916;-77
2022/07/14 03:56:34;;;;;;;;;;;;;;;21.56;27.14;98199.94;4720505;30;1775;-77
2022/07/14 03:59:00;;;;;;;;;;;;;;;21.43;27.51;98204.69;4715037;30;1931;-77
2022/07/14 04:01:25;;;;;;;;;;;;;;;21.35;27.67;98200.41;4718823;30;1022;-77
2022/07/14 04:03:54;;;;;;;;;;;;;;;21.17;27.88;98204.41;4719133;30;1282;-78
2022/07/14 04:06:20;;;;;;;;;;;;;;;20.97;28.55;98203.63;4701222;30;1185;-77
2022/07/14 04:08:46;;;;;;;;;;;;;;;21.12;28.22;98210.59;4718693;30;1292;-78
2022/07/14 04:11:12;;;;;;;;;;;;;;;20.86;28.71;98205.88;4701224;30;1289;-79
2022/07/14 04:13:38;;;;;;;;;;;;;;;21.11;28.27;98203.34;4653293;30;1912;-79
2022/07/14 04:16:05;;;;;;;;;;;;;;;20.93;28.50;98214.22;4664559;30;1158;-78
2022/07/14 04:18:35;;;;;;;;;;;;;;;21.07;28.53;98213.94;4681433;30;1274;-77
2022/07/14 04:21:01;;;;;;;;;;;;;;;20.94;28.84;98210.19;4677862;30;1265;-73
2022/07/14 04:23:30;;;;;;;;;;;;;;;21.11;28.56;98209.00;4669001;30;1265;-76
2022/07/14 04:25:56;;;;;;;;;;;;;;;21.22;28.31;98212.38;4701716;30;1086;-77
2022/07/14 04:28:22;;;;;;;;;;;;;;;21.13;28.35;98217.03;4718662;30;1461;-77
2022/07/14 04:30:48;;;;;;;;;;;;;;;21.19;28.33;98218.13;4720993;30;1061;-76
2022/07/14 04:33:18;;;;;;;;;;;;;;;21.16;28.34;98219.81;4693274;30;1734;-74
2022/07/14 04:35:44;;;;;;;;;;;;;;;21.35;28.57;98217.41;4703958;30;1912;-77
2022/07/14 04:38:10;;;;;;;;;;;;;;;21.55;28.24;98220.97;4687581;30;1670;-78
2022/07/14 04:40:56;;;;;;;;;;;;;;;21.25;28.39;98220.00;4751795;30;1353;-79
2022/07/14 04:43:24;;;;;;;;;;;;;;;21.26;28.53;98213.13;4747449;30;1758;-77
2022/07/14 04:45:52;;;;;;;;;;;;;;;21.22;28.77;98215.22;4750583;30;1220;-78
2022/07/14 04:48:18;;;;;;;;;;;;;;;21.14;28.85;98219.44;4756291;30;1170;-77
2022/07/14 04:53:28;;;;;;;;;;;;;;;21.16;28.96;98228.28;4756294;30;1290;-76
2022/07/14 04:56:15;;;;;;;;;;;;;;;21.04;29.03;98220.47;4748156;30;1052;-76
2022/07/14 04:58:49;;;;;;;;;;;;;;;21.16;28.88;98228.28;4776182;30;1348;-75
2022/07/14 05:01:17;;;;;;;;;;;;;;;21.13;28.90;98234.81;4787878;29;1593;-76
2022/07/14 05:03:44;;;;;;;;;;;;;;;21.06;28.92;98230.09;4787979;29;1504;-76
2022/07/14 05:06:11;;;;;;;;;;;;;;;21.18;28.89;98231.47;4779788;29;1731;-76
2022/07/14 05:08:37;;;;;;;;;;;;;;;21.12;28.99;98224.72;4770445;30;1180;-77
2022/07/14 05:11:05;;;;;;;;;;;;;;;21.23;28.96;98228.13;4770638;30;1228;-76
2022/07/14 05:13:31;;;;;;;;;;;;;;;21.17;29.25;98229.88;4769999;30;1911;-77
2022/07/14 05:15:56;;;;;;;;;;;;;;;21.10;29.17;98235.69;4790419;29;1295;-78
2022/07/14 05:18:23;;;;;;;;;;;;;;;21.04;29.46;98231.78;4786896;30;1661;-76
2022/07/14 05:20:48;;;;;;;;;;;;;;;21.16;29.32;98233.16;4786426;30;1814;-77
2022/07/14 05:23:14;;;;;;;;;;;;;;;21.13;29.40;98240.47;4785216;30;1582;-76
2022/07/14 05:25:40;;;;;;;;;;;;;;;20.99;29.73;98237.97;4801255;29;1871;-77
2022/07/14 05:28:06;;;;;;;;;;;;;;;21.16;29.50;98241.66;4802644;29;1971;-77
2022/07/14 05:30:57;;;;;;;;;;;;;;;20.88;29.74;98245.84;4782374;30;1945;-77
2022/07/14 05:33:30;;;;;;;;;;;;;;;21.06;29.32;98246.28;4770082;30;1943;-76
2022/07/14 05:35:55;;;;;;;;;;;;;;;21.12;29.57;98246.56;4745639;30;1908;-78
2022/07/14 05:38:23;;;;;;;;;;;;;;;21.12;29.27;98244.53;4780566;30;1691;-79
2022/07/14 05:40:49;;;;;;;;;;;;;;;20.92;30.00;98252.22;4776838;30;2001;-78
2022/07/14 05:43:15;;;;;;;;;;;;;;;21.06;29.65;98240.63;4795177;29;1244;-77
2022/07/14 05:45:41;;;;;;;;;;;;;;;21.12;29.72;98238.88;4790786;29;1608;-78
2022/07/14 05:48:06;;;;;;;;;;;;;;;21.25;29.62;98248.31;4796204;29;1539;-78
2022/07/14 05:50:32;;;;;;;;;;;;;;;21.29;29.29;98242.56;4770462;30;1248;-77
2022/07/14 05:52:58;;;;;;;;;;;;;;;21.24;29.17;98251.56;4779666;30;2133;-76
2022/07/14 05:55:23;;;;;;;;;;;;;;;21.35;29.24;98245.69;4770507;30;1919;-76
2022/07/14 05:57:51;;;;;;;;;;;;;;;21.27;29.29;98245.84;4738157;30;1320;-76
2022/07/14 06:00:17;;;;;;;;;;;;;;;21.39;29.33;98246.44;4769773;30;1465;-76
2022/07/14 06:02:47;;;;;;;;;;;;;;;21.51;29.01;98246.56;4755086;30;1602;-76
2022/07/14 06:05:18;;;;;;;;;;;;;;;21.57;29.49;98241.19;4770620;30;1174;-76
2022/07/14 06:07:44;;;;;;;;;;;;;;;21.47;29.73;98247.88;4732126;30;1298;-78
2022/07/14 06:10:10;;;;;;;;;;;;;;;21.56;29.14;98245.25;4764167;30;1227;-77
2022/07/14 06:12:40;;;;;;;;;;;;;;;21.43;29.44;98247.16;4752560;30;1043;-77
2022/07/14 06:15:08;;;;;;;;;;;;;;;21.72;28.97;98242.44;4737487;30;1920;-78
2022/07/14 06:17:34;;;;;;;;;;;;;;;21.69;29.25;98248.97;4734023;30;1118;-75
2022/07/14 06:20:07;;;;;;;;;;;;;;;21.42;29.35;98240.69;4716594;30;1481;-77
2022/07/14 06:22:34;;;;;;;;;;;;;;;21.70;29.03;98244.09;4732673;30;1146;-77
2022/07/14 06:25:00;;;;;;;;;;;;;;;21.75;29.25;98244.38;4738370;30;1829;-77
2022/07/14 06:27:26;;;;;;;;;;;;;;;21.85;28.97;98246.16;4767350;30;2083;-77
2022/07/14 06:29:52;;;;;;;;;;;;;;;21.99;28.62;98244.25;4767993;30;1727;-76
2022/07/14 06:32:18;;;;;;;;;;;;;;;21.59;29.59;98244.34;4770217;30;2029;-76
2022/07/14 06:34:45;;;;;;;;;;;;;;;21.74;29.12;98236.34;4755053;30;1982;-76
2022/07/14 06:37:19;;;;;;;;;;;;;;;21.66;29.47;98244.22;4782792;29;1884;-76
2022/07/14 06:39:45;;;;;;;;;;;;;;;21.78;28.94;98237.06;4823845;29;1919;-75
2022/07/14 06:42:13;;;;;;;;;;;;;;;21.73;29.27;98243.25;4826161;29;1791;-77
2022/07/14 06:44:50;;;;;;;;;;;;;;;21.64;29.40;98243.03;4825821;29;1990;-75
2022/07/14 06:47:16;;;;;;;;;;;;;;;21.64;29.41;98235.34;4807547;29;1970;-77
2022/07/14 06:49:44;;;;;;;;;;;;;;;21.53;29.65;98229.13;4820950;29;1807;-75
2022/07/14 06:52:09;;;;;;;;;;;;;;;21.47;29.60;98226.03;4795619;29;1949;-76
2022/07/14 06:54:35;;;;;;;;;;;;;;;21.62;29.42;98232.16;4807987;29;2034;-76
2022/07/14 06:57:00;;;;;;;;;;;;;;;21.48;29.99;98230.44;4813616;29;1879;-75
2022/07/14 06:59:26;;;;;;;;;;;;;;;21.64;29.43;98218.34;4825889;29;1989;-75
2022/07/14 07:01:51;;;;;;;;;;;;;;;21.60;29.73;98223.28;4839973;29;1932;-76
2022/07/14 07:04:16;;;;;;;;;;;;;;;21.70;29.51;98219.41;4844050;29;1828;-75
2022/07/14 07:06:45;;;;;;;;;;;;;;;21.47;29.75;98222.41;4844558;29;1621;-75
2022/07/14 07:09:11;;;;;;;;;;;;;;;21.56;29.81;98219.78;4844290;29;940;-75
2022/07/14 07:11:37;;;;;;;;;;;;;;;21.60;29.35;98223.28;4844508;29;1005;-75
2022/07/14 07:14:02;;;;;;;;;;;;;;;21.66;29.27;98215.06;4844043;29;1969;-75
2022/07/14 07:16:28;;;;;;;;;;;;;;;21.68;29.32;98223.94;4839432;29;1075;-76
2022/07/14 07:18:53;;;;;;;;;;;;;;;21.75;29.32;98224.56;4814434;29;1845;-75
2022/07/14 07:21:20;;;;;;;;;;;;;;;21.69;29.49;98232.00;4797642;29;1096;-76
2022/07/14 07:23:49;;;;;;;;;;;;;;;21.45;30.02;98222.03;4805574;29;1809;-76
2022/07/14 07:26:14;;;;;;;;;;;;;;;21.50;29.90;98232.81;4806770;29;1043;-76
2022/07/14 07:28:40;;;;;;;;;;;;;;;21.35;29.85;98225.88;4800875;29;974;-75
2022/07/14 07:31:05;;;;;;;;;;;;;;;21.62;29.59;98231.38;4807279;29;1103;-75
2022/07/14 07:33:32;;;;;;;;;;;;;;;21.45;29.57;98222.03;4807876;29;1026;-75
2022/07/14 07:35:58;;;;;;;;;;;;;;;21.50;29.77;98219.50;4807846;29;1919;-75
2022/07/14 07:38:23;;;;;;;;;;;;;;;21.59;29.61;98216.03;4807226;29;1057;-75
2022/07/14 07:40:49;;;;;;;;;;;;;;;21.60;29.69;98228.97;4771609;30;1171;-76
2022/07/14 07:43:14;;;;;;;;;;;;;;;21.57;29.70;98229.84;4771150;30;1050;-74
2022/07/14 07:45:40;;;;;;;;;;;;;;;21.55;29.44;98229.47;4771518;30;1044;-75
2022/07/14 07:48:06;;;;;;;;;;;;;;;21.59;29.47;98221.72;4785310;30;996;-75
2022/07/14 07:50:32;;;;;;;;;;;;;;;21.65;29.32;98230.47;4803480;29;1102;-74
2022/07/14 07:52:58;;;;;;;;;;;;;;;21.45;29.98;98217.19;4834948;29;973;-74
2022/07/14 07:55:23;;;;;;;;;;;;;;;21.55;29.57;98226.66;4855181;29;1978;-75
2022/07/14 07:57:50;;;;;;;;;;;;;;;21.52;29.62;98227.53;4862084;29;1964;-76
2022/07/14 08:00:15;;;;;;;;;;;;;;;21.46;29.59;98223.63;4862116;29;1258;-76
2022/07/14 08:02:45;;;;;;;;;;;;;;;21.49;29.59;98217.09;4843697;29;1140;-75
2022/07/14 08:05:10;;;;;;;;;;;;;;;21.58;29.49;98231.44;4807491;29;1130;-75
2022/07/14 08:07:37;;;;;;;;;;;;;;;21.45;29.78;98227.69;4807420;29;1042;-76
2022/07/14 08:10:02;;;;;;;;;;;;;;;21.24;30.03;98224.09;4777855;29;1007;-75
2022/07/14 08:12:28;;;;;;;;;;;;;;;21.32;30.04;98225.53;4849175;29;2014;-74
2022/07/14 08:14:53;;;;;;;;;;;;;;;21.53;29.62;98226.31;4843314;29;1907;-75
2022/07/14 08:17:19;;;;;;;;;;;;;;;21.38;29.81;98230.69;4851988;29;1010;-75
2022/07/14 08:19:45;;;;;;;;;;;;;;;21.41;29.81;98221.34;4828025;29;995;-76
2022/07/14 08:22:10;;;;;;;;;;;;;;;21.49;29.64;98223.53;4861505;29;996;-77
2022/07/14 08:24:36;;;;;;;;;;;;;;;21.54;29.65;98225.06;4862695;29;947;-76
2022/07/14 08:27:01;;;;;;;;;;;;;;;21.47;30.13;98213.91;4862381;29;886;-76
2022/07/14 08:29:27;;;;;;;;;;;;;;;21.53;29.61;98212.13;4862453;29;1004;-76
2022/07/14 08:31:52;;;;;;;;;;;;;;;21.29;30.33;98220.72;4862345;29;906;-76
2022/07/14 08:34:18;;;;;;;;;;;;;;;21.44;29.86;98217.59;4862087;29;1907;-76
2022/07/14 08:36:43;;;;;;;;;;;;;;;21.64;29.67;98218.34;4889872;29;1039;-76
2022/07/14 08:39:08;;;;;;;;;;;;;;;21.63;29.58;98222.44;4882596;29;1258;-75
2022/07/14 08:41:34;;;;;;;;;;;;;;;21.69;29.45;98215.00;4861947;29;949;-76
2022/07/14 08:44:00;;;;;;;;;;;;;;;21.60;29.54;98209.13;4862182;29;951;-76
2022/07/14 08:46:25;;;;;;;;;;;;;;;21.61;29.72;98207.13;4861702;29;1048;-76
2022/07/14 08:48:51;;;;;;;;;;;;;;;21.61;29.91;98195.81;4846096;29;966;-76
2022/07/14 08:51:17;;;;;;;;;;;;;;;21.47;29.85;98202.59;4862210;29;945;-76
2022/07/14 08:53:42;;;;;;;;;;;;;;;21.41;29.87;98193.81;4861508;29;1981;-76
2022/07/14 08:56:08;;;;;;;;;;;;;;;21.42;30.04;98203.09;4861580;29;1077;-76
2022/07/14 08:58:33;;;;;;;;;;;;;;;21.58;29.92;98203.13;4861111;29;1202;-77
2022/07/14 09:00:59;;;;;;;;;;;;;;;21.61;29.63;98196.59;4827800;29;1391;-75
2022/07/14 09:03:24;;;;;;;;;;;;;;;21.65;29.52;98191.63;4843399;29;936;-76
2022/07/14 09:05:50;;;;;;;;;;;;;;;21.81;29.33;98188.81;4827960;29;1038;-77
2022/07/14 09:08:19;;;;;;;;;;;;;;;21.62;29.93;98189.69;4842990;29;1029;-77
2022/07/14 09:10:45;;;;;;;;;;;;;;;21.61;29.65;98179.59;4842906;29;1106;-76
2022/07/14 09:13:19;;;;;;;;;;;;;;;21.58;29.62;98180.47;4871183;29;938;-76
2022/07/14 09:15:45;;;;;;;;;;;;;;;21.49;29.75;98189.56;4880001;29;1911;-76
2022/07/14 09:18:20;;;;;;;;;;;;;;;21.42;30.01;98188.94;4879815;29;1335;-76
2022/07/14 09:20:45;;;;;;;;;;;;;;;21.63;29.87;98182.78;4879730;29;985;-76
2022/07/14 09:23:11;;;;;;;;;;;;;;;21.57;29.79;98178.88;4879900;29;884;-75
2022/07/14 09:25:39;;;;;;;;;;;;;;;21.46;30.06;98189.66;4879905;29;999;-75
2022/07/14 09:28:06;;;;;;;;;;;;;;;21.33;30.36;98193.16;4879836;29;948;-75
2022/07/14 09:30:32;;;;;;;;;;;;;;;21.50;30.03;98190.34;4842858;29;1010;-77
2022/07/14 09:33:01;;;;;;;;;;;;;;;21.55;29.87;98193.50;4859922;29;921;-76
2022/07/14 09:35:36;;;;;;;;;;;;;;;21.70;29.67;98176.94;4861447;29;1915;-75
2022/07/14 09:38:17;;;;;;;;;;;;;;;21.66;29.64;98170.59;4845997;29;1011;-75
2022/07/14 09:40:42;;;;;;;;;;;;;;;21.47;29.90;98174.28;4861112;29;1052;-76
2022/07/14 09:43:09;;;;;;;;;;;;;;;21.44;30.05;98175.13;4845770;29;970;-75
2022/07/14 09:45:36;;;;;;;;;;;;;;;21.50;29.94;98177.03;4861225;29;955;-75
2022/07/14 09:48:07;;;;;;;;;;;;;;;21.46;29.98;98172.69;4842355;29;996;-76
2022/07/14 09:50:43;;;;;;;;;;;;;;;21.49;30.05;98171.78;4843105;29;964;-75
2022/07/14 09:53:38;;;;;;;;;;;;;;;21.61;30.09;98171.13;4842690;29;953;-76
2022/07/14 09:56:04;;;;;;;;;;;;;;;21.54;29.83;98172.06;4806040;29;1903;-76
2022/07/14 09:58:44;;;;;;;;;;;;;;;21.60;29.76;98161.00;4791733;29;1043;-76
2022/07/14 10:01:10;;;;;;;;;;;;;;;21.64;29.79;98167.38;4769837;30;1073;-75
2022/07/14 10:03:37;;;;;;;;;;;;;;;21.47;30.08;98169.41;4770109;30;956;-75
2022/07/14 10:06:02;;;;;;;;;;;;;;;21.56;29.91;98165.97;4771506;30;1052;-75
2022/07/14 10:08:31;;;;;;;;;;;;;;;21.75;29.64;98167.13;4773591;30;1054;-76
2022/07/14 10:10:57;;;;;;;;;;;;;;;21.62;29.92;98164.22;4780844;29;1144;-76
2022/07/14 10:13:23;;;;;;;;;;;;;;;21.44;30.15;98160.97;4775589;29;1219;-76
2022/07/14 10:15:49;;;;;;;;;;;;;;;21.50;30.38;98168.53;4772370;30;2178;-75
2022/07/14 10:18:14;;;;;;;;;;;;;;;21.65;29.85;98163.31;4769639;30;1318;-75
2022/07/14 10:20:40;;;;;;;;;;;;;;;21.43;30.15;98145.25;4770336;30;1221;-75
2022/07/14 10:23:05;;;;;;;;;;;;;;;21.56;30.01;98149.78;4755409;30;1248;-75
2022/07/14 10:25:31;;;;;;;;;;;;;;;21.77;29.60;98147.66;4755417;30;1357;-76
2022/07/14 10:27:57;;;;;;;;;;;;;;;21.56;29.95;98143.31;4755372;30;1252;-76
2022/07/14 10:30:43;;;;;;;;;;;;;;;21.49;30.03;98138.59;4772989;30;1336;-76
2022/07/14 10:33:15;;;;;;;;;;;;;;;21.54;30.19;98149.41;4800804;29;1277;-76
2022/07/14 10:35:52;;;;;;;;;;;;;;;21.76;29.68;98152.53;4808949;29;1964;-76
2022/07/14 10:38:32;;;;;;;;;;;;;;;21.76;29.99;98144.03;4793705;29;1534;-76
2022/07/14 10:41:00;;;;;;;;;;;;;;;21.65;30.07;98149.16;4816271;29;1164;-76
2022/07/14 10:43:27;;;;;;;;;;;;;;;21.67;30.08;98149.53;4826432;29;1326;-74
2022/07/14 10:45:53;;;;;;;;;;;;;;;21.61;30.02;98151.28;4797577;29;1251;-75
2022/07/14 10:48:31;;;;;;;;;;;;;;;21.87;29.63;98135.28;4844997;29;1063;-75
2022/07/14 10:51:15;;;;;;;;;;;;;;;21.63;30.14;98148.00;4826745;29;1020;-75
2022/07/14 10:53:59;;;;;;;;;;;;;;;21.77;29.75;98137.13;4811906;29;939;-74
2022/07/14 10:56:26;;;;;;;;;;;;;;;21.68;30.19;98134.13;4841329;29;960;-75
2022/07/14 10:59:11;;;;;;;;;;;;;;;21.70;30.11;98128.78;4844935;29;1027;-75
2022/07/14 11:01:36;;;;;;;;;;;;;;;21.62;30.22;98130.22;4844866;29;1389;-75
2022/07/14 11:04:02;;;;;;;;;;;;;;;21.57;30.04;98122.25;4829911;29;959;-75
2022/07/14 11:06:28;;;;;;;;;;;;;;;21.76;29.84;98126.22;4845126;29;976;-76
2022/07/14 11:09:11;;;;;;;;;;;;;;;21.79;29.62;98123.31;4825299;29;1059;-75
2022/07/14 11:11:37;;;;;;;;;;;;;;;21.75;29.76;98128.25;4808093;29;1737;-75
2022/07/14 11:14:03;;;;;;;;;;;;;;;21.79;29.75;98123.31;4808579;29;1903;-76
2022/07/14 11:16:59;;;;;;;;;;;;;;;21.62;30.25;98116.06;4808327;29;1007;-75
2022/07/14 11:19:28;;;;;;;;;;;;;;;21.61;30.26;98110.84;4780491;30;1053;-75
2022/07/14 11:22:13;;;;;;;;;;;;;;;21.49;30.28;98110.28;4787526;30;969;-75
2022/07/14 11:24:45;;;;;;;;;;;;;;;21.61;30.32;98105.97;4772459;30;967;-75
2022/07/14 11:27:27;;;;;;;;;;;;;;;21.64;30.07;98115.63;4754622;30;968;-75
2022/07/14 11:29:55;;;;;;;;;;;;;;;21.70;30.16;98114.63;4754739;30;1177;-75
2022/07/14 11:32:30;;;;;;;;;;;;;;;21.67;30.01;98121.19;4754389;30;1110;-76
2022/07/14 11:38:00;;;;;;;;;;;;;;;21.59;30.19;98109.25;4754491;30;1399;-76
2022/07/14 11:40:44;;;;;;;;;;;;;;;21.68;30.11;98105.78;4766917;30;1129;-75
2022/07/14 11:43:27;;;;;;;;;;;;;;;21.62;30.41;98101.91;4797863;29;940;-75
2022/07/14 11:45:59;;;;;;;;;;;;;;;21.46;30.40;98099.09;4807923;29;1024;-75
2022/07/14 11:48:27;;;;;;;;;;;;;;;21.53;30.52;98098.91;4808276;29;1074;-75
2022/07/14 11:51:00;;;;;;;;;;;;;;;21.66;30.25;98101.78;4793002;29;1015;-75
2022/07/14 11:53:25;;;;;;;;;;;;;;;21.54;30.43;98094.81;4793164;29;994;-75
2022/07/14 11:55:50;;;;;;;;;;;;;;;21.59;30.29;98092.25;4811627;29;1919;-75
2022/07/14 11:58:16;;;;;;;;;;;;;;;21.59;30.50;98094.28;4844361;29;1005;-75
2022/07/14 12:00:54;;;;;;;;;;;;;;;21.54;30.26;98089.16;4807397;29;1130;-75
2022/07/14 12:03:20;;;;;;;;;;;;;;;21.48;30.62;98088.91;4807658;29;948;-75
2022/07/14 12:05:45;;;;;;;;;;;;;;;21.53;30.25;98093.22;4841478;29;1009;-75
2022/07/14 12:08:12;;;;;;;;;;;;;;;21.46;30.50;98093.41;4843921;29;977;-76
2022/07/14 12:10:38;;;;;;;;;;;;;;;21.52;30.60;98094.47;4844118;29;932;-75
2022/07/14 12:13:04;;;;;;;;;;;;;;;21.58;30.36;98089.88;4828985;29;963;-76
2022/07/14 12:15:29;;;;;;;;;;;;;;;21.68;29.95;98082.34;4843912;29;2030;-76
2022/07/14 12:17:55;;;;;;;;;;;;;;;21.83;29.88;98080.75;4843916;29;1066;-75
2022/07/14 12:20:21;;;;;;;;;;;;;;;21.88;29.68;98085.06;4843895;29;1107;-76
2022/07/14 12:22:53;;;;;;;;;;;;;;;21.82;29.88;98077.13;4828632;29;988;-75
2022/07/14 12:25:25;;;;;;;;;;;;;;;21.73;30.04;98079.78;4843823;29;1000;-75
2022/07/14 12:27:51;;;;;;;;;;;;;;;21.85;29.91;98079.03;4843510;29;1118;-75
2022/07/14 12:30:16;;;;;;;;;;;;;;;21.83;29.79;98081.53;4843248;29;908;-76
2022/07/14 12:32:42;;;;;;;;;;;;;;;21.85;29.86;98073.38;4877761;29;1065;-76
2022/07/14 12:35:07;;;;;;;;;;;;;;;21.88;29.96;98079.41;4865416;29;1940;-75
2022/07/14 12:37:33;;;;;;;;;;;;;;;21.72;30.17;98078.19;4880588;29;1007;-75
2022/07/14 12:39:58;;;;;;;;;;;;;;;21.86;29.78;98077.00;4865151;29;968;-75
2022/07/14 12:42:24;;;;;;;;;;;;;;;21.70;30.15;98072.16;4883960;29;980;-75
2022/07/14 12:45:00;;;;;;;;;;;;;;;21.95;30.00;98073.53;4884413;29;930;-75
2022/07/14 12:47:26;;;;;;;;;;;;;;;21.84;29.81;98063.28;4901120;29;963;-75
2022/07/14 12:49:51;;;;;;;;;;;;;;;21.84;30.13;98068.97;4901224;29;961;-75
2022/07/14 12:52:17;;;;;;;;;;;;;;;21.52;30.53;98083.16;4901618;29;883;-75
2022/07/14 12:54:42;;;;;;;;;;;;;;;21.85;29.96;98087.53;4901261;29;1915;-75
2022/07/14 12:57:21;;;;;;;;;;;;;;;21.87;29.83;98078.63;4901028;29;947;-75
2022/07/14 12:59:47;;;;;;;;;;;;;;;21.77;30.26;98080.47;4867887;29;977;-75
2022/07/14 13:02:18;;;;;;;;;;;;;;;21.56;30.41;98081.03;4901068;29;1260;-76
2022/07/14 13:04:47;;;;;;;;;;;;;;;21.70;30.49;98080.66;4900916;29;1003;-75
2022/07/14 13:07:19;;;;;;;;;;;;;;;21.66;30.11;98073.47;4884202;29;998;-76
2022/07/14 13:10:03;;;;;;;;;;;;;;;21.67;30.24;98078.72;4900653;29;1017;-75
2022/07/14 13:12:28;;;;;;;;;;;;;;;21.76;30.19;98067.56;4900778;29;957;-75
2022/07/14 13:14:57;;;;;;;;;;;;;;;21.55;30.43;98076.59;4901252;29;1915;-75